Terminal Aerodrome Forecast
Issued by NWS

Home | Current Version | Previous Version | Text Only | Print | Product List | Glossary On
Versions: 1 2 3 4 5 6 7 8 9 10 11 12 13 14 15 16 17 18 19 20 21 22
000
FTUS43 KDVN 210533
TAFCID
TAF
KCID 210533Z 2106/2206 24005KT 2SM BR SCT025 BKN035
      TEMPO 2106/2109 1SM BR SCT015 BKN025
     FM210900 32006KT 1SM BR FEW008
     FM211400 35005KT 3SM BR SKC
     FM211600 VRB04KT P6SM SKC=

USA.gov is the U.S. government's official web portal to all federal, state and local government web resources and services.